sensor_id;sensor_type;location;lat;lon;timestamp;P1;durP1;ratioP1;P2;durP2;ratioP2
37677;SDS011;23517;50.390;8.616;2023-02-21T00:01:39;40.40;;;24.35;;
37677;SDS011;23517;50.390;8.616;2023-02-21T00:04:25;40.65;;;23.92;;
37677;SDS011;23517;50.390;8.616;2023-02-21T00:07:10;37.63;;;22.40;;
37677;SDS011;23517;50.390;8.616;2023-02-21T00:09:55;39.22;;;24.45;;
37677;SDS011;23517;50.390;8.616;2023-02-21T00:12:41;38.17;;;22.73;;
37677;SDS011;23517;50.390;8.616;2023-02-21T00:15:26;37.92;;;22.63;;
37677;SDS011;23517;50.390;8.616;2023-02-21T00:18:16;38.38;;;23.83;;
37677;SDS011;23517;50.390;8.616;2023-02-21T00:21:01;36.85;;;22.13;;
37677;SDS011;23517;50.390;8.616;2023-02-21T00:23:47;40.63;;;23.67;;
37677;SDS011;23517;50.390;8.616;2023-02-21T00:26:37;38.30;;;23.98;;
37677;SDS011;23517;50.390;8.616;2023-02-21T00:29:23;36.53;;;22.35;;
37677;SDS011;23517;50.390;8.616;2023-02-21T00:32:14;37.65;;;22.20;;
37677;SDS011;23517;50.390;8.616;2023-02-21T00:34:59;37.63;;;22.20;;
37677;SDS011;23517;50.390;8.616;2023-02-21T00:37:48;39.28;;;23.70;;
37677;SDS011;23517;50.390;8.616;2023-02-21T00:40:35;41.15;;;23.85;;
37677;SDS011;23517;50.390;8.616;2023-02-21T00:43:30;45.30;;;23.80;;
37677;SDS011;23517;50.390;8.616;2023-02-21T00:46:18;37.88;;;23.23;;
37677;SDS011;23517;50.390;8.616;2023-02-21T00:49:04;39.60;;;23.90;;
37677;SDS011;23517;50.390;8.616;2023-02-21T00:51:51;44.42;;;25.88;;
37677;SDS011;23517;50.390;8.616;2023-02-21T00:54:37;39.85;;;24.27;;
37677;SDS011;23517;50.390;8.616;2023-02-21T00:57:22;40.58;;;23.95;;
37677;SDS011;23517;50.390;8.616;2023-02-21T01:00:08;39.65;;;24.58;;
37677;SDS011;23517;50.390;8.616;2023-02-21T01:03:02;41.15;;;23.80;;
37677;SDS011;23517;50.390;8.616;2023-02-21T01:05:48;42.58;;;24.50;;
37677;SDS011;23517;50.390;8.616;2023-02-21T01:08:34;37.35;;;23.08;;
37677;SDS011;23517;50.390;8.616;2023-02-21T01:11:20;38.42;;;24.08;;
37677;SDS011;23517;50.390;8.616;2023-02-21T01:14:06;38.25;;;22.48;;
37677;SDS011;23517;50.390;8.616;2023-02-21T01:16:53;37.40;;;23.42;;
37677;SDS011;23517;50.390;8.616;2023-02-21T01:19:40;38.95;;;23.05;;
37677;SDS011;23517;50.390;8.616;2023-02-21T01:22:27;39.28;;;23.02;;
37677;SDS011;23517;50.390;8.616;2023-02-21T01:25:14;45.03;;;23.25;;
37677;SDS011;23517;50.390;8.616;2023-02-21T01:28:01;41.85;;;23.63;;
37677;SDS011;23517;50.390;8.616;2023-02-21T01:30:46;40.58;;;23.73;;
37677;SDS011;23517;50.390;8.616;2023-02-21T01:33:38;37.72;;;22.52;;
37677;SDS011;23517;50.390;8.616;2023-02-21T01:36:25;39.53;;;23.73;;
37677;SDS011;23517;50.390;8.616;2023-02-21T01:39:11;41.45;;;22.85;;
37677;SDS011;23517;50.390;8.616;2023-02-21T01:41:57;37.53;;;23.58;;
37677;SDS011;23517;50.390;8.616;2023-02-21T01:44:43;41.70;;;23.33;;
37677;SDS011;23517;50.390;8.616;2023-02-21T01:47:31;43.08;;;23.27;;
37677;SDS011;23517;50.390;8.616;2023-02-21T01:50:27;44.40;;;22.95;;
37677;SDS011;23517;50.390;8.616;2023-02-21T01:53:17;37.95;;;21.55;;
37677;SDS011;23517;50.390;8.616;2023-02-21T01:56:06;40.08;;;20.92;;
37677;SDS011;23517;50.390;8.616;2023-02-21T01:58:56;36.45;;;20.95;;
37677;SDS011;23517;50.390;8.616;2023-02-21T02:04:38;38.97;;;20.98;;
37677;SDS011;23517;50.390;8.616;2023-02-21T02:07:24;37.95;;;22.02;;
37677;SDS011;23517;50.390;8.616;2023-02-21T02:10:09;36.13;;;19.48;;
37677;SDS011;23517;50.390;8.616;2023-02-21T02:13:02;33.35;;;20.55;;
37677;SDS011;23517;50.390;8.616;2023-02-21T02:21:51;36.17;;;20.70;;
37677;SDS011;23517;50.390;8.616;2023-02-21T02:24:46;33.45;;;20.63;;
37677;SDS011;23517;50.390;8.616;2023-02-21T02:30:15;32.03;;;18.98;;
37677;SDS011;23517;50.390;8.616;2023-02-21T02:33:17;36.80;;;19.40;;
37677;SDS011;23517;50.390;8.616;2023-02-21T02:36:20;37.05;;;19.75;;
37677;SDS011;23517;50.390;8.616;2023-02-21T02:39:09;37.60;;;19.67;;
37677;SDS011;23517;50.390;8.616;2023-02-21T02:42:16;30.88;;;17.17;;
37677;SDS011;23517;50.390;8.616;2023-02-21T02:45:23;35.75;;;18.20;;
37677;SDS011;23517;50.390;8.616;2023-02-21T02:50:58;33.72;;;18.38;;
37677;SDS011;23517;50.390;8.616;2023-02-21T02:53:28;28.38;;;16.75;;
37677;SDS011;23517;50.390;8.616;2023-02-21T02:55:57;32.15;;;17.45;;
37677;SDS011;23517;50.390;8.616;2023-02-21T02:58:27;32.92;;;16.10;;
37677;SDS011;23517;50.390;8.616;2023-02-21T03:01:22;29.83;;;16.20;;
37677;SDS011;23517;50.390;8.616;2023-02-21T03:04:30;28.20;;;15.48;;
37677;SDS011;23517;50.390;8.616;2023-02-21T03:10:10;26.23;;;15.57;;
37677;SDS011;23517;50.390;8.616;2023-02-21T03:13:11;30.48;;;15.43;;
37677;SDS011;23517;50.390;8.616;2023-02-21T03:16:05;25.48;;;15.20;;
37677;SDS011;23517;50.390;8.616;2023-02-21T03:18:46;32.28;;;13.88;;
37677;SDS011;23517;50.390;8.616;2023-02-21T03:21:29;25.73;;;14.35;;
37677;SDS011;23517;50.390;8.616;2023-02-21T03:24:03;29.80;;;14.93;;
37677;SDS011;23517;50.390;8.616;2023-02-21T03:26:32;26.08;;;14.70;;
37677;SDS011;23517;50.390;8.616;2023-02-21T03:29:02;26.55;;;14.85;;
37677;SDS011;23517;50.390;8.616;2023-02-21T03:31:32;23.75;;;13.98;;
37677;SDS011;23517;50.390;8.616;2023-02-21T03:34:05;29.55;;;13.48;;
37677;SDS011;23517;50.390;8.616;2023-02-21T03:36:32;25.48;;;13.90;;
37677;SDS011;23517;50.390;8.616;2023-02-21T03:38:58;24.33;;;12.98;;
37677;SDS011;23517;50.390;8.616;2023-02-21T03:41:25;24.00;;;13.35;;
37677;SDS011;23517;50.390;8.616;2023-02-21T03:43:52;25.70;;;14.13;;
37677;SDS011;23517;50.390;8.616;2023-02-21T03:46:19;23.33;;;13.02;;
37677;SDS011;23517;50.390;8.616;2023-02-21T03:48:56;25.50;;;13.32;;
37677;SDS011;23517;50.390;8.616;2023-02-21T03:51:22;27.67;;;13.02;;
37677;SDS011;23517;50.390;8.616;2023-02-21T03:53:49;21.90;;;12.02;;
37677;SDS011;23517;50.390;8.616;2023-02-21T03:56:15;22.70;;;12.55;;
37677;SDS011;23517;50.390;8.616;2023-02-21T03:58:42;21.50;;;11.85;;
37677;SDS011;23517;50.390;8.616;2023-02-21T04:01:09;20.48;;;11.45;;
37677;SDS011;23517;50.390;8.616;2023-02-21T04:03:43;22.30;;;11.63;;
37677;SDS011;23517;50.390;8.616;2023-02-21T04:06:16;20.77;;;11.10;;
37677;SDS011;23517;50.390;8.616;2023-02-21T04:08:42;24.42;;;11.88;;
37677;SDS011;23517;50.390;8.616;2023-02-21T04:11:09;22.35;;;10.93;;
37677;SDS011;23517;50.390;8.616;2023-02-21T04:13:36;21.42;;;10.75;;
37677;SDS011;23517;50.390;8.616;2023-02-21T04:16:02;19.52;;;10.73;;
37677;SDS011;23517;50.390;8.616;2023-02-21T04:18:29;19.85;;;9.90;;
37677;SDS011;23517;50.390;8.616;2023-02-21T04:20:57;16.17;;;9.50;;
37677;SDS011;23517;50.390;8.616;2023-02-21T04:23:24;19.42;;;9.93;;
37677;SDS011;23517;50.390;8.616;2023-02-21T04:25:51;17.50;;;10.13;;
37677;SDS011;23517;50.390;8.616;2023-02-21T04:28:17;19.73;;;10.00;;
37677;SDS011;23517;50.390;8.616;2023-02-21T04:30:44;18.00;;;10.40;;
37677;SDS011;23517;50.390;8.616;2023-02-21T04:33:11;18.35;;;9.77;;
37677;SDS011;23517;50.390;8.616;2023-02-21T04:35:37;17.65;;;9.57;;
37677;SDS011;23517;50.390;8.616;2023-02-21T04:38:04;19.58;;;9.65;;
37677;SDS011;23517;50.390;8.616;2023-02-21T04:40:31;19.33;;;9.82;;
37677;SDS011;23517;50.390;8.616;2023-02-21T04:42:57;24.02;;;12.43;;
37677;SDS011;23517;50.390;8.616;2023-02-21T04:45:24;24.42;;;11.18;;
37677;SDS011;23517;50.390;8.616;2023-02-21T04:47:50;30.30;;;15.00;;
37677;SDS011;23517;50.390;8.616;2023-02-21T04:50:17;39.00;;;18.65;;
37677;SDS011;23517;50.390;8.616;2023-02-21T04:52:45;37.63;;;20.13;;
37677;SDS011;23517;50.390;8.616;2023-02-21T04:55:13;41.00;;;20.45;;
37677;SDS011;23517;50.390;8.616;2023-02-21T04:57:40;47.30;;;22.67;;
37677;SDS011;23517;50.390;8.616;2023-02-21T05:00:07;33.75;;;16.08;;
37677;SDS011;23517;50.390;8.616;2023-02-21T05:02:36;30.48;;;15.73;;
37677;SDS011;23517;50.390;8.616;2023-02-21T05:05:02;29.80;;;13.23;;
37677;SDS011;23517;50.390;8.616;2023-02-21T05:07:29;24.20;;;12.70;;
37677;SDS011;23517;50.390;8.616;2023-02-21T05:09:56;25.15;;;11.27;;
37677;SDS011;23517;50.390;8.616;2023-02-21T05:12:22;21.65;;;11.13;;
37677;SDS011;23517;50.390;8.616;2023-02-21T05:14:49;21.13;;;10.75;;
37677;SDS011;23517;50.390;8.616;2023-02-21T05:17:16;19.35;;;9.73;;
37677;SDS011;23517;50.390;8.616;2023-02-21T05:19:45;19.38;;;9.27;;
37677;SDS011;23517;50.390;8.616;2023-02-21T05:22:12;17.02;;;9.75;;
37677;SDS011;23517;50.390;8.616;2023-02-21T05:24:40;22.67;;;9.50;;
37677;SDS011;23517;50.390;8.616;2023-02-21T05:27:09;17.88;;;9.35;;
37677;SDS011;23517;50.390;8.616;2023-02-21T05:29:36;16.65;;;8.38;;
37677;SDS011;23517;50.390;8.616;2023-02-21T05:32:03;17.65;;;9.07;;
37677;SDS011;23517;50.390;8.616;2023-02-21T05:34:29;17.33;;;7.82;;
37677;SDS011;23517;50.390;8.616;2023-02-21T05:36:56;14.02;;;7.53;;
37677;SDS011;23517;50.390;8.616;2023-02-21T05:39:25;15.90;;;7.40;;
37677;SDS011;23517;50.390;8.616;2023-02-21T05:41:52;15.88;;;7.28;;
37677;SDS011;23517;50.390;8.616;2023-02-21T05:44:19;14.50;;;7.78;;
37677;SDS011;23517;50.390;8.616;2023-02-21T05:46:45;18.73;;;8.15;;
37677;SDS011;23517;50.390;8.616;2023-02-21T05:49:12;15.60;;;8.23;;
37677;SDS011;23517;50.390;8.616;2023-02-21T05:51:40;13.68;;;6.90;;
37677;SDS011;23517;50.390;8.616;2023-02-21T05:54:10;13.95;;;7.53;;
37677;SDS011;23517;50.390;8.616;2023-02-21T05:56:42;15.10;;;7.20;;
37677;SDS011;23517;50.390;8.616;2023-02-21T05:59:12;16.17;;;7.47;;
37677;SDS011;23517;50.390;8.616;2023-02-21T06:01:41;16.33;;;7.40;;
37677;SDS011;23517;50.390;8.616;2023-02-21T06:04:08;12.70;;;7.53;;
37677;SDS011;23517;50.390;8.616;2023-02-21T06:06:35;12.75;;;7.18;;
37677;SDS011;23517;50.390;8.616;2023-02-21T06:09:03;13.02;;;7.05;;
37677;SDS011;23517;50.390;8.616;2023-02-21T06:11:31;15.23;;;7.43;;
37677;SDS011;23517;50.390;8.616;2023-02-21T06:14:01;12.00;;;6.35;;
37677;SDS011;23517;50.390;8.616;2023-02-21T06:16:34;13.07;;;6.47;;
37677;SDS011;23517;50.390;8.616;2023-02-21T06:19:04;12.70;;;5.97;;
37677;SDS011;23517;50.390;8.616;2023-02-21T06:21:32;13.90;;;6.65;;
37677;SDS011;23517;50.390;8.616;2023-02-21T06:24:00;12.80;;;6.85;;
37677;SDS011;23517;50.390;8.616;2023-02-21T06:26:28;13.23;;;7.03;;
37677;SDS011;23517;50.390;8.616;2023-02-21T06:28:55;14.70;;;6.57;;
37677;SDS011;23517;50.390;8.616;2023-02-21T06:31:21;12.00;;;6.90;;
37677;SDS011;23517;50.390;8.616;2023-02-21T06:33:48;14.02;;;6.68;;
37677;SDS011;23517;50.390;8.616;2023-02-21T06:36:20;12.10;;;6.55;;
37677;SDS011;23517;50.390;8.616;2023-02-21T06:38:51;13.55;;;6.75;;
37677;SDS011;23517;50.390;8.616;2023-02-21T06:41:22;14.40;;;7.13;;
37677;SDS011;23517;50.390;8.616;2023-02-21T06:43:55;12.50;;;5.75;;
37677;SDS011;23517;50.390;8.616;2023-02-21T06:46:24;15.55;;;6.65;;
37677;SDS011;23517;50.390;8.616;2023-02-21T06:48:54;13.38;;;7.82;;
37677;SDS011;23517;50.390;8.616;2023-02-21T06:51:21;20.95;;;9.60;;
37677;SDS011;23517;50.390;8.616;2023-02-21T06:53:54;39.10;;;14.05;;
37677;SDS011;23517;50.390;8.616;2023-02-21T06:56:22;86.85;;;28.67;;
37677;SDS011;23517;50.390;8.616;2023-02-21T06:58:49;38.88;;;15.30;;
37677;SDS011;23517;50.390;8.616;2023-02-21T07:01:16;29.13;;;12.95;;
37677;SDS011;23517;50.390;8.616;2023-02-21T07:03:43;17.05;;;8.48;;
37677;SDS011;23517;50.390;8.616;2023-02-21T07:06:11;20.55;;;8.30;;
37677;SDS011;23517;50.390;8.616;2023-02-21T07:08:38;14.27;;;6.65;;
37677;SDS011;23517;50.390;8.616;2023-02-21T07:11:05;14.13;;;7.18;;
37677;SDS011;23517;50.390;8.616;2023-02-21T07:13:32;13.32;;;7.00;;
37677;SDS011;23517;50.390;8.616;2023-02-21T07:16:00;17.83;;;8.20;;
37677;SDS011;23517;50.390;8.616;2023-02-21T07:18:27;14.77;;;7.50;;
37677;SDS011;23517;50.390;8.616;2023-02-21T07:20:54;15.05;;;6.93;;
37677;SDS011;23517;50.390;8.616;2023-02-21T07:23:20;10.02;;;6.45;;
37677;SDS011;23517;50.390;8.616;2023-02-21T07:25:47;12.02;;;6.43;;
37677;SDS011;23517;50.390;8.616;2023-02-21T07:28:14;14.73;;;6.28;;
37677;SDS011;23517;50.390;8.616;2023-02-21T07:30:41;12.75;;;6.28;;
37677;SDS011;23517;50.390;8.616;2023-02-21T07:33:08;12.68;;;7.00;;
37677;SDS011;23517;50.390;8.616;2023-02-21T07:35:35;15.75;;;6.68;;
37677;SDS011;23517;50.390;8.616;2023-02-21T07:38:01;11.98;;;6.82;;
37677;SDS011;23517;50.390;8.616;2023-02-21T07:40:28;12.27;;;6.95;;
37677;SDS011;23517;50.390;8.616;2023-02-21T07:42:55;12.57;;;6.78;;
37677;SDS011;23517;50.390;8.616;2023-02-21T07:45:21;10.95;;;7.20;;
37677;SDS011;23517;50.390;8.616;2023-02-21T07:47:48;19.52;;;9.35;;
37677;SDS011;23517;50.390;8.616;2023-02-21T07:50:16;17.75;;;9.50;;
37677;SDS011;23517;50.390;8.616;2023-02-21T07:52:44;22.52;;;9.82;;
37677;SDS011;23517;50.390;8.616;2023-02-21T07:55:11;16.23;;;10.02;;
37677;SDS011;23517;50.390;8.616;2023-02-21T07:57:38;17.48;;;8.73;;
37677;SDS011;23517;50.390;8.616;2023-02-21T08:00:05;19.25;;;10.20;;
37677;SDS011;23517;50.390;8.616;2023-02-21T08:02:32;22.92;;;11.15;;
37677;SDS011;23517;50.390;8.616;2023-02-21T08:04:59;19.90;;;10.25;;
37677;SDS011;23517;50.390;8.616;2023-02-21T08:07:26;21.02;;;10.60;;
37677;SDS011;23517;50.390;8.616;2023-02-21T08:09:52;19.88;;;9.90;;
37677;SDS011;23517;50.390;8.616;2023-02-21T08:12:19;16.85;;;9.95;;
37677;SDS011;23517;50.390;8.616;2023-02-21T08:14:46;18.30;;;9.80;;
37677;SDS011;23517;50.390;8.616;2023-02-21T08:17:12;17.63;;;8.95;;
37677;SDS011;23517;50.390;8.616;2023-02-21T08:19:49;17.67;;;9.27;;
37677;SDS011;23517;50.390;8.616;2023-02-21T08:22:16;14.93;;;8.82;;
37677;SDS011;23517;50.390;8.616;2023-02-21T08:24:43;14.40;;;9.45;;
37677;SDS011;23517;50.390;8.616;2023-02-21T08:27:11;16.15;;;9.35;;
37677;SDS011;23517;50.390;8.616;2023-02-21T08:29:37;15.73;;;9.35;;
37677;SDS011;23517;50.390;8.616;2023-02-21T08:32:05;18.27;;;9.90;;
37677;SDS011;23517;50.390;8.616;2023-02-21T08:34:32;17.63;;;9.63;;
37677;SDS011;23517;50.390;8.616;2023-02-21T08:36:59;18.05;;;10.05;;
37677;SDS011;23517;50.390;8.616;2023-02-21T08:39:25;17.33;;;9.45;;
37677;SDS011;23517;50.390;8.616;2023-02-21T08:41:55;15.32;;;8.95;;
37677;SDS011;23517;50.390;8.616;2023-02-21T08:44:21;14.90;;;9.05;;
37677;SDS011;23517;50.390;8.616;2023-02-21T08:46:48;13.27;;;8.65;;
37677;SDS011;23517;50.390;8.616;2023-02-21T08:49:15;12.73;;;8.70;;
37677;SDS011;23517;50.390;8.616;2023-02-21T08:51:45;14.82;;;8.88;;
37677;SDS011;23517;50.390;8.616;2023-02-21T08:54:12;14.93;;;8.88;;
37677;SDS011;23517;50.390;8.616;2023-02-21T08:56:39;14.93;;;8.90;;
37677;SDS011;23517;50.390;8.616;2023-02-21T08:59:05;16.65;;;9.45;;
37677;SDS011;23517;50.390;8.616;2023-02-21T09:01:34;13.80;;;8.63;;
37677;SDS011;23517;50.390;8.616;2023-02-21T09:04:02;15.13;;;8.57;;
37677;SDS011;23517;50.390;8.616;2023-02-21T09:06:30;15.23;;;8.13;;
37677;SDS011;23517;50.390;8.616;2023-02-21T09:08:57;14.05;;;8.10;;
37677;SDS011;23517;50.390;8.616;2023-02-21T09:11:23;12.30;;;8.05;;
37677;SDS011;23517;50.390;8.616;2023-02-21T09:13:50;14.32;;;8.65;;
37677;SDS011;23517;50.390;8.616;2023-02-21T09:16:20;14.35;;;8.57;;
37677;SDS011;23517;50.390;8.616;2023-02-21T09:18:56;13.02;;;7.75;;
37677;SDS011;23517;50.390;8.616;2023-02-21T09:21:26;14.82;;;8.38;;
37677;SDS011;23517;50.390;8.616;2023-02-21T09:23:54;12.98;;;8.20;;
37677;SDS011;23517;50.390;8.616;2023-02-21T09:26:21;16.88;;;8.63;;
37677;SDS011;23517;50.390;8.616;2023-02-21T09:28:49;15.48;;;8.57;;
37677;SDS011;23517;50.390;8.616;2023-02-21T09:31:18;15.48;;;8.52;;
37677;SDS011;23517;50.390;8.616;2023-02-21T09:33:45;11.73;;;7.93;;
37677;SDS011;23517;50.390;8.616;2023-02-21T09:36:12;14.32;;;8.55;;
37677;SDS011;23517;50.390;8.616;2023-02-21T09:38:38;14.38;;;8.25;;
37677;SDS011;23517;50.390;8.616;2023-02-21T09:41:07;14.70;;;8.48;;
37677;SDS011;23517;50.390;8.616;2023-02-21T09:43:40;13.13;;;8.70;;
37677;SDS011;23517;50.390;8.616;2023-02-21T09:46:14;13.57;;;8.23;;
37677;SDS011;23517;50.390;8.616;2023-02-21T09:48:46;14.18;;;8.68;;
37677;SDS011;23517;50.390;8.616;2023-02-21T09:51:14;14.05;;;8.43;;
37677;SDS011;23517;50.390;8.616;2023-02-21T09:53:44;16.42;;;8.75;;
37677;SDS011;23517;50.390;8.616;2023-02-21T09:58:59;13.65;;;8.57;;
37677;SDS011;23517;50.390;8.616;2023-02-21T10:07:36;11.60;;;7.82;;
37677;SDS011;23517;50.390;8.616;2023-02-21T10:10:29;13.45;;;7.95;;
37677;SDS011;23517;50.390;8.616;2023-02-21T10:16:21;13.10;;;8.20;;
37677;SDS011;23517;50.390;8.616;2023-02-21T10:21:58;14.88;;;8.13;;
37677;SDS011;23517;50.390;8.616;2023-02-21T12:10:02;16.85;;;9.85;;
37677;SDS011;23517;50.390;8.616;2023-02-21T12:16:01;19.20;;;11.45;;
37677;SDS011;23517;50.390;8.616;2023-02-21T12:18:50;16.65;;;9.73;;
37677;SDS011;23517;50.390;8.616;2023-02-21T12:27:20;26.33;;;12.07;;
37677;SDS011;23517;50.390;8.616;2023-02-21T12:29:55;21.55;;;11.52;;
37677;SDS011;23517;50.390;8.616;2023-02-21T12:36:19;20.17;;;11.18;;
37677;SDS011;23517;50.390;8.616;2023-02-21T12:45:17;18.52;;;11.63;;
37677;SDS011;23517;50.390;8.616;2023-02-21T12:50:45;19.80;;;10.90;;
37677;SDS011;23517;50.390;8.616;2023-02-21T12:53:25;17.13;;;10.05;;
37677;SDS011;23517;50.390;8.616;2023-02-21T12:56:08;17.50;;;10.27;;
37677;SDS011;23517;50.390;8.616;2023-02-21T13:01:40;19.20;;;11.45;;
37677;SDS011;23517;50.390;8.616;2023-02-21T13:04:21;20.55;;;10.85;;
37677;SDS011;23517;50.390;8.616;2023-02-21T13:10:23;17.52;;;9.70;;
37677;SDS011;23517;50.390;8.616;2023-02-21T13:13:02;16.00;;;9.18;;
37677;SDS011;23517;50.390;8.616;2023-02-21T13:15:37;22.55;;;10.02;;
37677;SDS011;23517;50.390;8.616;2023-02-21T13:18:27;20.13;;;9.82;;
37677;SDS011;23517;50.390;8.616;2023-02-21T13:21:07;14.70;;;9.27;;
37677;SDS011;23517;50.390;8.616;2023-02-21T13:24:37;17.63;;;9.77;;
37677;SDS011;23517;50.390;8.616;2023-02-21T13:27:41;14.05;;;8.77;;
37677;SDS011;23517;50.390;8.616;2023-02-21T13:33:04;14.30;;;9.40;;
37677;SDS011;23517;50.390;8.616;2023-02-21T13:35:33;17.20;;;8.70;;
37677;SDS011;23517;50.390;8.616;2023-02-21T13:38:04;15.32;;;8.75;;
37677;SDS011;23517;50.390;8.616;2023-02-21T13:40:34;17.88;;;8.32;;
37677;SDS011;23517;50.390;8.616;2023-02-21T13:43:25;13.80;;;8.60;;
37677;SDS011;23517;50.390;8.616;2023-02-21T13:46:21;16.92;;;8.65;;
37677;SDS011;23517;50.390;8.616;2023-02-21T13:49:35;13.10;;;8.32;;
37677;SDS011;23517;50.390;8.616;2023-02-21T14:02:53;12.13;;;7.82;;
37677;SDS011;23517;50.390;8.616;2023-02-21T14:05:23;12.93;;;7.03;;
37677;SDS011;23517;50.390;8.616;2023-02-21T14:16:26;10.73;;;7.20;;
37677;SDS011;23517;50.390;8.616;2023-02-21T14:19:00;13.00;;;7.38;;
37677;SDS011;23517;50.390;8.616;2023-02-21T14:21:39;13.40;;;7.28;;
37677;SDS011;23517;50.390;8.616;2023-02-21T14:26:55;9.00;;;6.18;;
37677;SDS011;23517;50.390;8.616;2023-02-21T14:34:38;16.98;;;8.57;;
37677;SDS011;23517;50.390;8.616;2023-02-21T14:37:13;13.80;;;7.70;;
37677;SDS011;23517;50.390;8.616;2023-02-21T14:39:51;10.05;;;6.00;;
37677;SDS011;23517;50.390;8.616;2023-02-21T14:51:26;8.48;;;5.15;;
37677;SDS011;23517;50.390;8.616;2023-02-21T14:57:33;7.60;;;4.18;;
37677;SDS011;23517;50.390;8.616;2023-02-21T15:00:41;6.75;;;3.80;;
37677;SDS011;23517;50.390;8.616;2023-02-21T15:03:28;8.07;;;4.00;;
37677;SDS011;23517;50.390;8.616;2023-02-21T15:06:23;4.80;;;3.42;;
37677;SDS011;23517;50.390;8.616;2023-02-21T15:08:52;7.25;;;3.67;;
37677;SDS011;23517;50.390;8.616;2023-02-21T15:14:09;5.28;;;3.17;;
37677;SDS011;23517;50.390;8.616;2023-02-21T15:16:40;6.00;;;2.97;;
37677;SDS011;23517;50.390;8.616;2023-02-21T15:19:22;6.25;;;3.15;;
37677;SDS011;23517;50.390;8.616;2023-02-21T15:22:14;8.77;;;3.97;;
37677;SDS011;23517;50.390;8.616;2023-02-21T15:30:24;9.57;;;4.05;;
37677;SDS011;23517;50.390;8.616;2023-02-21T15:33:25;6.13;;;4.10;;
37677;SDS011;23517;50.390;8.616;2023-02-21T15:35:59;5.55;;;3.63;;
37677;SDS011;23517;50.390;8.616;2023-02-21T15:38:31;7.03;;;4.00;;
37677;SDS011;23517;50.390;8.616;2023-02-21T15:41:02;6.10;;;3.75;;
37677;SDS011;23517;50.390;8.616;2023-02-21T15:46:22;7.90;;;4.15;;
37677;SDS011;23517;50.390;8.616;2023-02-21T15:48:54;6.75;;;3.97;;
37677;SDS011;23517;50.390;8.616;2023-02-21T15:51:25;8.80;;;4.20;;
37677;SDS011;23517;50.390;8.616;2023-02-21T15:56:43;5.22;;;3.72;;
37677;SDS011;23517;50.390;8.616;2023-02-21T15:59:12;6.55;;;4.10;;
37677;SDS011;23517;50.390;8.616;2023-02-21T16:02:05;7.57;;;3.60;;
37677;SDS011;23517;50.390;8.616;2023-02-21T16:04:46;6.47;;;3.42;;
37677;SDS011;23517;50.390;8.616;2023-02-21T16:07:17;7.80;;;3.83;;
37677;SDS011;23517;50.390;8.616;2023-02-21T16:10:02;6.47;;;3.30;;
37677;SDS011;23517;50.390;8.616;2023-02-21T16:12:36;8.52;;;3.65;;
37677;SDS011;23517;50.390;8.616;2023-02-21T16:17:38;11.98;;;4.85;;
37677;SDS011;23517;50.390;8.616;2023-02-21T16:20:17;8.95;;;5.32;;
37677;SDS011;23517;50.390;8.616;2023-02-21T16:25:57;8.68;;;4.90;;
37677;SDS011;23517;50.390;8.616;2023-02-21T16:28:26;7.15;;;3.63;;
37677;SDS011;23517;50.390;8.616;2023-02-21T16:30:55;8.82;;;2.85;;
37677;SDS011;23517;50.390;8.616;2023-02-21T16:33:26;10.82;;;2.63;;
37677;SDS011;23517;50.390;8.616;2023-02-21T16:35:53;3.75;;;2.22;;
37677;SDS011;23517;50.390;8.616;2023-02-21T16:38:21;6.65;;;2.38;;
37677;SDS011;23517;50.390;8.616;2023-02-21T16:40:50;7.60;;;2.17;;
37677;SDS011;23517;50.390;8.616;2023-02-21T16:43:27;6.13;;;2.53;;
37677;SDS011;23517;50.390;8.616;2023-02-21T16:45:54;4.07;;;1.83;;
37677;SDS011;23517;50.390;8.616;2023-02-21T16:48:24;4.20;;;2.40;;
37677;SDS011;23517;50.390;8.616;2023-02-21T16:51:02;9.52;;;2.10;;
37677;SDS011;23517;50.390;8.616;2023-02-21T16:53:33;4.40;;;2.00;;
37677;SDS011;23517;50.390;8.616;2023-02-21T16:56:00;4.70;;;2.10;;
37677;SDS011;23517;50.390;8.616;2023-02-21T16:58:39;8.55;;;3.30;;
37677;SDS011;23517;50.390;8.616;2023-02-21T17:01:13;9.02;;;3.92;;
37677;SDS011;23517;50.390;8.616;2023-02-21T17:03:54;5.43;;;3.42;;
37677;SDS011;23517;50.390;8.616;2023-02-21T17:06:22;6.22;;;3.90;;
37677;SDS011;23517;50.390;8.616;2023-02-21T17:08:51;8.00;;;4.57;;
37677;SDS011;23517;50.390;8.616;2023-02-21T17:11:18;7.72;;;3.78;;
37677;SDS011;23517;50.390;8.616;2023-02-21T17:13:45;9.20;;;5.03;;
37677;SDS011;23517;50.390;8.616;2023-02-21T17:16:11;12.60;;;4.68;;
37677;SDS011;23517;50.390;8.616;2023-02-21T17:18:38;9.65;;;4.07;;
37677;SDS011;23517;50.390;8.616;2023-02-21T17:21:05;10.52;;;4.10;;
37677;SDS011;23517;50.390;8.616;2023-02-21T17:23:32;7.07;;;4.35;;
37677;SDS011;23517;50.390;8.616;2023-02-21T17:25:58;12.15;;;6.43;;
37677;SDS011;23517;50.390;8.616;2023-02-21T17:28:25;8.38;;;5.18;;
37677;SDS011;23517;50.390;8.616;2023-02-21T17:30:55;9.88;;;5.25;;
37677;SDS011;23517;50.390;8.616;2023-02-21T17:33:21;8.63;;;3.40;;
37677;SDS011;23517;50.390;8.616;2023-02-21T17:35:48;6.03;;;2.55;;
37677;SDS011;23517;50.390;8.616;2023-02-21T17:38:17;11.70;;;3.50;;
37677;SDS011;23517;50.390;8.616;2023-02-21T17:40:44;6.43;;;3.10;;
37677;SDS011;23517;50.390;8.616;2023-02-21T17:43:14;14.50;;;2.90;;
37677;SDS011;23517;50.390;8.616;2023-02-21T17:45:41;4.15;;;2.03;;
37677;SDS011;23517;50.390;8.616;2023-02-21T17:48:08;5.05;;;2.42;;
37677;SDS011;23517;50.390;8.616;2023-02-21T17:50:34;9.25;;;2.60;;
37677;SDS011;23517;50.390;8.616;2023-02-21T17:53:01;12.55;;;4.28;;
37677;SDS011;23517;50.390;8.616;2023-02-21T17:55:28;7.40;;;2.78;;
37677;SDS011;23517;50.390;8.616;2023-02-21T17:57:55;5.55;;;2.00;;
37677;SDS011;23517;50.390;8.616;2023-02-21T18:00:23;6.13;;;2.30;;
37677;SDS011;23517;50.390;8.616;2023-02-21T18:02:53;8.57;;;2.65;;
37677;SDS011;23517;50.390;8.616;2023-02-21T18:05:24;10.18;;;2.83;;
37677;SDS011;23517;50.390;8.616;2023-02-21T18:07:51;4.97;;;2.22;;
37677;SDS011;23517;50.390;8.616;2023-02-21T18:10:19;2.50;;;1.52;;
37677;SDS011;23517;50.390;8.616;2023-02-21T18:12:50;4.45;;;1.70;;
37677;SDS011;23517;50.390;8.616;2023-02-21T18:15:18;8.45;;;2.10;;
37677;SDS011;23517;50.390;8.616;2023-02-21T18:17:50;5.13;;;1.90;;
37677;SDS011;23517;50.390;8.616;2023-02-21T18:20:17;5.40;;;1.98;;
37677;SDS011;23517;50.390;8.616;2023-02-21T18:22:44;4.35;;;2.13;;
37677;SDS011;23517;50.390;8.616;2023-02-21T18:25:11;6.05;;;2.30;;
37677;SDS011;23517;50.390;8.616;2023-02-21T18:27:40;3.97;;;2.05;;
37677;SDS011;23517;50.390;8.616;2023-02-21T18:30:07;4.80;;;1.90;;
37677;SDS011;23517;50.390;8.616;2023-02-21T18:32:35;5.50;;;2.22;;
37677;SDS011;23517;50.390;8.616;2023-02-21T18:35:02;5.90;;;2.67;;
37677;SDS011;23517;50.390;8.616;2023-02-21T18:37:28;4.43;;;2.10;;
37677;SDS011;23517;50.390;8.616;2023-02-21T18:39:55;4.70;;;1.98;;
37677;SDS011;23517;50.390;8.616;2023-02-21T18:42:22;6.55;;;2.03;;
37677;SDS011;23517;50.390;8.616;2023-02-21T18:44:49;5.40;;;2.13;;
37677;SDS011;23517;50.390;8.616;2023-02-21T18:47:16;5.40;;;1.90;;
37677;SDS011;23517;50.390;8.616;2023-02-21T18:49:44;6.68;;;2.20;;
37677;SDS011;23517;50.390;8.616;2023-02-21T18:52:13;11.30;;;5.80;;
37677;SDS011;23517;50.390;8.616;2023-02-21T18:54:47;15.50;;;7.97;;
37677;SDS011;23517;50.390;8.616;2023-02-21T18:57:16;6.82;;;3.20;;
37677;SDS011;23517;50.390;8.616;2023-02-21T18:59:46;3.83;;;2.60;;
37677;SDS011;23517;50.390;8.616;2023-02-21T19:02:15;8.77;;;2.45;;